CET,Max TemperatureF,Mean TemperatureF,Min TemperatureF,Max Dew PointF,MeanDew PointF,Min DewpointF,Max Humidity, Mean Humidity, Min Humidity, Max Sea Level PressureIn, Mean Sea Level PressureIn, Min Sea Level PressureIn, Max VisibilityMiles, Mean VisibilityMiles, Min VisibilityMiles, Max Wind SpeedMPH, Mean Wind SpeedMPH, Max Gust SpeedMPH,PrecipitationIn, CloudCover, Events, WindDirDegrees
2011-10-1,82,71,60,57,51,46,72,49,28,30.24,30.20,30.15,,,,9,5,,0.00,,,351
2011-10-2,84,72,60,57,51,45,72,50,25,30.18,30.14,30.09,6,6,6,13,5,,0.00,1,,351
2011-10-3,84,72,60,57,50,43,68,48,25,30.18,30.16,30.15,,,,9,4,,0.00,,,332
2011-10-4,82,70,59,63,53,46,73,58,30,30.18,30.15,30.09,,,,12,4,,0.00,,,337
2011-10-5,78,69,60,64,56,50,88,63,39,30.15,30.13,30.09,6,6,5,10,3,,0.00,1,,328
2011-10-6,77,68,60,64,61,55,88,76,57,30.15,30.10,30.06,6,5,3,12,4,,0.00,2,,233
2011-10-7,75,68,60,64,61,57,94,80,65,30.06,29.88,29.71,6,6,1,21,5,33,0.00,4,Rain-Thunderstorm,221
2011-10-8,69,64,59,59,43,37,94,49,31,29.80,29.76,29.74,6,6,6,14,7,,0.00,4,Rain,60
2011-10-9,62,56,51,43,39,34,67,54,34,29.98,29.83,29.74,6,6,6,24,8,43,0.00,3,,19
2011-10-10,68,60,51,39,37,36,58,45,30,30.09,30.03,29.98,6,6,6,14,9,29,0.00,1,,19
2011-10-11,80,66,53,55,45,37,77,48,30,30.06,30.04,30.01,6,6,6,9,4,,0.00,3,,346
2011-10-12,75,65,55,63,57,48,88,72,50,30.09,30.06,30.04,6,6,6,10,4,,0.00,3,,233
2011-10-13,73,66,60,63,60,57,88,76,61,30.06,30.00,29.95,6,6,6,10,3,46,0.00,3,,195
2011-10-14,66,62,57,57,48,37,73,59,42,30.06,30.00,29.95,6,6,6,23,12,38,0.00,5,Rain-Thunderstorm,58
2011-10-15,64,60,55,41,37,32,51,44,34,30.15,30.09,30.04,6,6,6,30,20,50,0.00,2,,51
2011-10-16,64,58,53,39,37,34,58,46,37,30.21,30.15,30.12,6,6,6,26,16,41,0.00,1,,52
2011-10-17,64,57,50,39,34,28,54,41,26,30.24,30.20,30.15,,,,20,13,30,0.00,,,48
2011-10-18,66,56,46,54,45,37,77,63,48,30.27,30.23,30.21,6,6,6,12,4,,0.00,5,,221
2011-10-19,68,64,59,57,54,54,82,72,60,30.27,30.23,30.15,6,6,6,14,5,25,0.00,3,,193
2011-10-20,69,66,60,59,56,54,94,69,60,30.15,30.06,30.01,6,6,3,16,10,36,0.00,5,Rain-Thunderstorm,179
2011-10-21,71,65,57,59,56,50,94,76,46,30.12,30.05,30.01,6,6,5,13,6,,0.00,4,Rain-Thunderstorm,154
2011-10-22,69,62,55,55,52,50,88,74,56,30.15,30.12,30.09,6,6,5,8,5,,0.00,5,Rain,329
2011-10-23,71,63,55,52,48,41,82,63,35,30.12,30.05,30.01,6,6,6,8,4,,0.00,3,,6
2011-10-24,66,60,53,57,52,48,88,76,60,30.01,29.97,29.95,6,6,6,9,4,,0.00,5,Rain-Thunderstorm,357
2011-10-25,73,62,51,57,53,50,94,76,50,30.01,29.96,29.92,,,,7,3,43,0.00,,,326
2011-10-26,68,64,59,63,59,54,94,86,73,30.06,30.00,29.95,6,4,1,10,4,24,0.00,6,Fog-Rain-Thunderstorm,171
2011-10-27,69,62,55,61,57,54,100,86,68,30.15,30.09,30.04,6,6,4,10,2,,0.00,3,Fog,10
2011-10-28,73,65,57,59,56,55,94,75,53,30.27,30.21,30.15,6,6,4,7,4,,0.00,2,,310
2011-10-29,73,64,55,59,54,52,94,73,50,30.27,30.22,30.18,6,6,4,7,4,,0.00,2,,348
2011-10-30,69,62,55,54,51,50,88,68,49,30.18,30.14,30.09,6,6,6,7,4,,0.00,3,,360
2011-10-31,71,61,51,52,49,45,88,60,40,30.12,30.09,30.06,6,6,6,9,5,,0.00,3,,26